Terminal Aerodrome Forecast
Issued by NWS Twin Cities, MN

Home | Current Version | Previous Version | Graphics & Text | Print | Product List | Glossary On
Versions: 1 2 3 4 5 6 7 8 9 10 11 12 13 14 15 16 17 18 19 20 21 22 23 24 25 26 27
000
FTUS43 KMPX 060859 AAA
TAFMSP
TAF AMD
KMSP 060859Z 0609/0712 02012KT 3SM TSRA BR SCT015 OVC040CB
      TEMPO 0609/0611 1 1/2SM +SHRA BKN015
     FM061100 05007KT 4SM SHRA VCTS SCT008 OVC012CB
     FM061700 34013G22KT 6SM SHRA BR SCT015 OVC025
     FM062300 34013G20KT P6SM BKN100
     FM070300 33008KT P6SM SKC=

USA.gov is the U.S. government's official web portal to all federal, state and local government web resources and services.